sensor_id;sensor_type;location;lat;lon;timestamp;temperature;humidity
59973;DHT22;55298;-36.624;-64.282;2023-12-20T00:02:40;11.50;99.90
59973;DHT22;55298;-36.624;-64.282;2023-12-20T00:05:13;10.60;99.90
59973;DHT22;55298;-36.624;-64.282;2023-12-20T00:07:41;11.40;99.90
59973;DHT22;55298;-36.624;-64.282;2023-12-20T00:10:09;11.40;99.90
59973;DHT22;55298;-36.624;-64.282;2023-12-20T00:12:39;11.50;99.90
59973;DHT22;55298;-36.624;-64.282;2023-12-20T00:15:08;11.50;99.90
59973;DHT22;55298;-36.624;-64.282;2023-12-20T00:17:37;11.50;99.90
59973;DHT22;55298;-36.624;-64.282;2023-12-20T00:20:32;11.50;99.90
59973;DHT22;55298;-36.624;-64.282;2023-12-20T00:23:06;11.50;99.90
59973;DHT22;55298;-36.624;-64.282;2023-12-20T00:25:34;11.50;99.90
59973;DHT22;55298;-36.624;-64.282;2023-12-20T00:28:02;11.50;99.90
59973;DHT22;55298;-36.624;-64.282;2023-12-20T00:30:30;11.50;99.90
59973;DHT22;55298;-36.624;-64.282;2023-12-20T00:32:58;11.50;99.90
59973;DHT22;55298;-36.624;-64.282;2023-12-20T00:35:26;11.50;99.90
59973;DHT22;55298;-36.624;-64.282;2023-12-20T00:37:55;11.60;99.90
59973;DHT22;55298;-36.624;-64.282;2023-12-20T00:40:23;11.60;99.90
59973;DHT22;55298;-36.624;-64.282;2023-12-20T00:42:51;11.50;99.90
59973;DHT22;55298;-36.624;-64.282;2023-12-20T00:45:19;11.50;99.90
59973;DHT22;55298;-36.624;-64.282;2023-12-20T00:47:47;11.60;99.90
59973;DHT22;55298;-36.624;-64.282;2023-12-20T00:50:15;11.60;99.90
59973;DHT22;55298;-36.624;-64.282;2023-12-20T00:52:43;11.70;99.90
59973;DHT22;55298;-36.624;-64.282;2023-12-20T00:55:11;11.70;99.90
59973;DHT22;55298;-36.624;-64.282;2023-12-20T00:57:39;11.70;99.90
59973;DHT22;55298;-36.624;-64.282;2023-12-20T01:00:07;11.70;99.90
59973;DHT22;55298;-36.624;-64.282;2023-12-20T01:02:36;11.70;99.90
59973;DHT22;55298;-36.624;-64.282;2023-12-20T01:05:04;11.70;99.90
59973;DHT22;55298;-36.624;-64.282;2023-12-20T01:07:33;11.70;99.90
59973;DHT22;55298;-36.624;-64.282;2023-12-20T01:10:01;11.70;99.90
59973;DHT22;55298;-36.624;-64.282;2023-12-20T01:12:30;11.70;99.90
59973;DHT22;55298;-36.624;-64.282;2023-12-20T01:14:57;11.70;99.90
59973;DHT22;55298;-36.624;-64.282;2023-12-20T01:17:25;11.70;99.90
59973;DHT22;55298;-36.624;-64.282;2023-12-20T01:19:53;11.80;99.90
59973;DHT22;55298;-36.624;-64.282;2023-12-20T01:22:21;11.80;99.90
59973;DHT22;55298;-36.624;-64.282;2023-12-20T01:24:49;11.90;99.90
59973;DHT22;55298;-36.624;-64.282;2023-12-20T01:27:17;11.90;99.90
59973;DHT22;55298;-36.624;-64.282;2023-12-20T01:29:44;11.90;99.90
59973;DHT22;55298;-36.624;-64.282;2023-12-20T01:32:12;11.90;99.90
59973;DHT22;55298;-36.624;-64.282;2023-12-20T01:34:40;11.90;99.90
59973;DHT22;55298;-36.624;-64.282;2023-12-20T01:37:08;12.00;99.90
59973;DHT22;55298;-36.624;-64.282;2023-12-20T01:39:37;12.00;99.90
59973;DHT22;55298;-36.624;-64.282;2023-12-20T01:42:04;12.00;99.90
59973;DHT22;55298;-36.624;-64.282;2023-12-20T01:44:32;11.90;99.90
59973;DHT22;55298;-36.624;-64.282;2023-12-20T01:47:02;11.90;99.90
59973;DHT22;55298;-36.624;-64.282;2023-12-20T01:49:30;11.90;99.90
59973;DHT22;55298;-36.624;-64.282;2023-12-20T01:51:58;12.00;99.90
59973;DHT22;55298;-36.624;-64.282;2023-12-20T01:54:25;12.00;99.90
59973;DHT22;55298;-36.624;-64.282;2023-12-20T01:57:06;12.00;99.90
59973;DHT22;55298;-36.624;-64.282;2023-12-20T01:59:34;12.10;99.90
59973;DHT22;55298;-36.624;-64.282;2023-12-20T02:02:04;12.10;99.90
59973;DHT22;55298;-36.624;-64.282;2023-12-20T02:04:32;12.00;99.90
59973;DHT22;55298;-36.624;-64.282;2023-12-20T02:07:00;12.10;99.90
59973;DHT22;55298;-36.624;-64.282;2023-12-20T02:09:29;12.00;99.90
59973;DHT22;55298;-36.624;-64.282;2023-12-20T02:11:57;12.10;99.90
59973;DHT22;55298;-36.624;-64.282;2023-12-20T02:14:25;12.10;99.90
59973;DHT22;55298;-36.624;-64.282;2023-12-20T02:16:53;12.10;99.90
59973;DHT22;55298;-36.624;-64.282;2023-12-20T02:19:21;12.10;99.90
59973;DHT22;55298;-36.624;-64.282;2023-12-20T02:21:49;12.10;99.90
59973;DHT22;55298;-36.624;-64.282;2023-12-20T02:24:17;12.10;99.90
59973;DHT22;55298;-36.624;-64.282;2023-12-20T02:26:45;12.10;99.90
59973;DHT22;55298;-36.624;-64.282;2023-12-20T02:29:13;12.20;99.90
59973;DHT22;55298;-36.624;-64.282;2023-12-20T02:31:41;12.10;99.90
59973;DHT22;55298;-36.624;-64.282;2023-12-20T02:34:09;12.20;99.90
59973;DHT22;55298;-36.624;-64.282;2023-12-20T02:36:36;12.20;99.90
59973;DHT22;55298;-36.624;-64.282;2023-12-20T02:39:04;12.20;99.90
59973;DHT22;55298;-36.624;-64.282;2023-12-20T02:41:31;12.20;99.90
59973;DHT22;55298;-36.624;-64.282;2023-12-20T02:44:01;12.20;99.90
59973;DHT22;55298;-36.624;-64.282;2023-12-20T02:46:28;12.20;99.90
59973;DHT22;55298;-36.624;-64.282;2023-12-20T02:48:56;12.20;99.90
59973;DHT22;55298;-36.624;-64.282;2023-12-20T02:51:24;12.30;99.90
59973;DHT22;55298;-36.624;-64.282;2023-12-20T02:53:51;12.30;99.90
59973;DHT22;55298;-36.624;-64.282;2023-12-20T02:56:19;12.30;99.90
59973;DHT22;55298;-36.624;-64.282;2023-12-20T02:58:47;12.30;99.90
59973;DHT22;55298;-36.624;-64.282;2023-12-20T03:01:15;12.20;99.90
59973;DHT22;55298;-36.624;-64.282;2023-12-20T03:03:42;12.20;99.90
59973;DHT22;55298;-36.624;-64.282;2023-12-20T03:06:10;12.20;99.90
59973;DHT22;55298;-36.624;-64.282;2023-12-20T03:08:39;12.20;99.90
59973;DHT22;55298;-36.624;-64.282;2023-12-20T03:11:07;12.30;99.90
59973;DHT22;55298;-36.624;-64.282;2023-12-20T03:13:35;12.70;99.90
59973;DHT22;55298;-36.624;-64.282;2023-12-20T03:16:10;12.20;99.90
59973;DHT22;55298;-36.624;-64.282;2023-12-20T03:18:38;12.20;99.90
59973;DHT22;55298;-36.624;-64.282;2023-12-20T03:21:06;12.20;99.90
59973;DHT22;55298;-36.624;-64.282;2023-12-20T03:23:34;12.20;99.90
59973;DHT22;55298;-36.624;-64.282;2023-12-20T03:26:02;12.20;99.90
59973;DHT22;55298;-36.624;-64.282;2023-12-20T03:28:30;12.10;99.90
59973;DHT22;55298;-36.624;-64.282;2023-12-20T03:30:58;12.20;99.90
59973;DHT22;55298;-36.624;-64.282;2023-12-20T03:33:26;12.30;99.90
59973;DHT22;55298;-36.624;-64.282;2023-12-20T03:35:53;12.20;99.90
59973;DHT22;55298;-36.624;-64.282;2023-12-20T03:38:22;12.30;99.90
59973;DHT22;55298;-36.624;-64.282;2023-12-20T03:40:51;12.30;99.90
59973;DHT22;55298;-36.624;-64.282;2023-12-20T03:43:19;12.20;99.90
59973;DHT22;55298;-36.624;-64.282;2023-12-20T03:45:46;12.30;99.90
59973;DHT22;55298;-36.624;-64.282;2023-12-20T03:48:14;12.20;99.90
59973;DHT22;55298;-36.624;-64.282;2023-12-20T03:50:42;12.20;99.90
59973;DHT22;55298;-36.624;-64.282;2023-12-20T03:53:09;12.20;99.90
59973;DHT22;55298;-36.624;-64.282;2023-12-20T03:55:37;12.20;99.90
59973;DHT22;55298;-36.624;-64.282;2023-12-20T03:58:04;12.20;99.90
59973;DHT22;55298;-36.624;-64.282;2023-12-20T04:00:32;12.20;99.90
59973;DHT22;55298;-36.624;-64.282;2023-12-20T04:02:59;12.20;99.90
59973;DHT22;55298;-36.624;-64.282;2023-12-20T04:05:27;12.20;99.90
59973;DHT22;55298;-36.624;-64.282;2023-12-20T04:07:55;12.20;99.90
59973;DHT22;55298;-36.624;-64.282;2023-12-20T04:10:22;12.20;99.90
59973;DHT22;55298;-36.624;-64.282;2023-12-20T04:12:50;12.20;99.90
59973;DHT22;55298;-36.624;-64.282;2023-12-20T04:15:17;12.20;99.90
59973;DHT22;55298;-36.624;-64.282;2023-12-20T04:17:45;12.20;99.90
59973;DHT22;55298;-36.624;-64.282;2023-12-20T04:20:13;12.20;99.90
59973;DHT22;55298;-36.624;-64.282;2023-12-20T04:22:40;12.20;99.90
59973;DHT22;55298;-36.624;-64.282;2023-12-20T04:25:09;12.20;99.90
59973;DHT22;55298;-36.624;-64.282;2023-12-20T04:27:37;12.10;99.90
59973;DHT22;55298;-36.624;-64.282;2023-12-20T04:30:05;12.40;99.90
59973;DHT22;55298;-36.624;-64.282;2023-12-20T04:32:34;12.10;99.90
59973;DHT22;55298;-36.624;-64.282;2023-12-20T04:35:01;12.10;99.90
59973;DHT22;55298;-36.624;-64.282;2023-12-20T04:37:29;12.10;99.90
59973;DHT22;55298;-36.624;-64.282;2023-12-20T04:39:56;12.10;99.90
59973;DHT22;55298;-36.624;-64.282;2023-12-20T04:42:24;12.10;99.90
59973;DHT22;55298;-36.624;-64.282;2023-12-20T04:44:52;12.10;99.90
59973;DHT22;55298;-36.624;-64.282;2023-12-20T04:47:19;12.20;99.90
59973;DHT22;55298;-36.624;-64.282;2023-12-20T04:49:47;12.10;99.90
59973;DHT22;55298;-36.624;-64.282;2023-12-20T04:52:14;12.20;99.90
59973;DHT22;55298;-36.624;-64.282;2023-12-20T04:57:21;12.00;99.90
59973;DHT22;55298;-36.624;-64.282;2023-12-20T04:59:53;12.10;99.90
59973;DHT22;55298;-36.624;-64.282;2023-12-20T05:02:21;12.50;99.90
59973;DHT22;55298;-36.624;-64.282;2023-12-20T05:04:49;12.10;99.90
59973;DHT22;55298;-36.624;-64.282;2023-12-20T05:07:16;12.10;99.90
59973;DHT22;55298;-36.624;-64.282;2023-12-20T05:09:44;12.20;99.90
59973;DHT22;55298;-36.624;-64.282;2023-12-20T05:12:12;12.10;99.90
59973;DHT22;55298;-36.624;-64.282;2023-12-20T05:14:40;12.20;99.90
59973;DHT22;55298;-36.624;-64.282;2023-12-20T05:17:07;12.20;99.90
59973;DHT22;55298;-36.624;-64.282;2023-12-20T05:22:11;12.20;99.90
59973;DHT22;55298;-36.624;-64.282;2023-12-20T05:24:38;12.10;99.90
59973;DHT22;55298;-36.624;-64.282;2023-12-20T05:27:06;12.20;99.90
59973;DHT22;55298;-36.624;-64.282;2023-12-20T05:29:34;12.20;99.90
59973;DHT22;55298;-36.624;-64.282;2023-12-20T05:32:01;12.20;99.90
59973;DHT22;55298;-36.624;-64.282;2023-12-20T05:34:31;12.30;99.90
59973;DHT22;55298;-36.624;-64.282;2023-12-20T05:36:59;12.30;99.90
59973;DHT22;55298;-36.624;-64.282;2023-12-20T05:39:28;12.30;99.90
59973;DHT22;55298;-36.624;-64.282;2023-12-20T05:41:57;12.40;99.90
59973;DHT22;55298;-36.624;-64.282;2023-12-20T05:44:25;12.50;99.90
59973;DHT22;55298;-36.624;-64.282;2023-12-20T05:46:53;12.50;99.90
59973;DHT22;55298;-36.624;-64.282;2023-12-20T05:49:20;12.50;99.90
59973;DHT22;55298;-36.624;-64.282;2023-12-20T05:51:48;12.50;99.90
59973;DHT22;55298;-36.624;-64.282;2023-12-20T05:54:17;12.50;99.90
59973;DHT22;55298;-36.624;-64.282;2023-12-20T05:56:45;12.50;99.90
59973;DHT22;55298;-36.624;-64.282;2023-12-20T05:59:13;12.30;99.90
59973;DHT22;55298;-36.624;-64.282;2023-12-20T06:01:41;12.30;99.90
59973;DHT22;55298;-36.624;-64.282;2023-12-20T06:04:08;12.30;99.90
59973;DHT22;55298;-36.624;-64.282;2023-12-20T06:06:41;12.20;99.90
59973;DHT22;55298;-36.624;-64.282;2023-12-20T06:09:09;12.20;99.90
59973;DHT22;55298;-36.624;-64.282;2023-12-20T06:11:37;12.30;99.90
59973;DHT22;55298;-36.624;-64.282;2023-12-20T06:14:05;12.20;99.90
59973;DHT22;55298;-36.624;-64.282;2023-12-20T06:16:32;12.20;99.90
59973;DHT22;55298;-36.624;-64.282;2023-12-20T06:19:00;12.20;99.90
59973;DHT22;55298;-36.624;-64.282;2023-12-20T06:21:28;12.30;99.90
59973;DHT22;55298;-36.624;-64.282;2023-12-20T06:23:55;12.30;99.90
59973;DHT22;55298;-36.624;-64.282;2023-12-20T06:26:23;12.30;99.90
59973;DHT22;55298;-36.624;-64.282;2023-12-20T06:28:50;12.30;99.90
59973;DHT22;55298;-36.624;-64.282;2023-12-20T06:31:18;12.30;99.90
59973;DHT22;55298;-36.624;-64.282;2023-12-20T06:33:46;12.20;99.90
59973;DHT22;55298;-36.624;-64.282;2023-12-20T06:36:14;12.20;99.90
59973;DHT22;55298;-36.624;-64.282;2023-12-20T06:38:42;12.30;99.90
59973;DHT22;55298;-36.624;-64.282;2023-12-20T06:41:13;12.40;99.90
59973;DHT22;55298;-36.624;-64.282;2023-12-20T06:43:41;12.40;99.90
59973;DHT22;55298;-36.624;-64.282;2023-12-20T06:46:09;12.30;99.90
59973;DHT22;55298;-36.624;-64.282;2023-12-20T06:48:38;12.40;99.90
59973;DHT22;55298;-36.624;-64.282;2023-12-20T06:51:06;12.40;99.90
59973;DHT22;55298;-36.624;-64.282;2023-12-20T06:53:34;12.50;99.90
59973;DHT22;55298;-36.624;-64.282;2023-12-20T06:56:02;12.60;99.90
59973;DHT22;55298;-36.624;-64.282;2023-12-20T06:58:29;12.60;99.90
59973;DHT22;55298;-36.624;-64.282;2023-12-20T07:00:57;12.60;99.90
59973;DHT22;55298;-36.624;-64.282;2023-12-20T07:03:24;12.50;99.90
59973;DHT22;55298;-36.624;-64.282;2023-12-20T07:05:52;12.60;99.90
59973;DHT22;55298;-36.624;-64.282;2023-12-20T07:08:20;12.60;99.90
59973;DHT22;55298;-36.624;-64.282;2023-12-20T07:10:47;12.50;99.90
59973;DHT22;55298;-36.624;-64.282;2023-12-20T07:13:15;12.50;99.90
59973;DHT22;55298;-36.624;-64.282;2023-12-20T07:15:42;12.60;99.90
59973;DHT22;55298;-36.624;-64.282;2023-12-20T07:18:10;12.60;99.90
59973;DHT22;55298;-36.624;-64.282;2023-12-20T07:20:38;12.70;99.90
59973;DHT22;55298;-36.624;-64.282;2023-12-20T07:23:05;12.70;99.90
59973;DHT22;55298;-36.624;-64.282;2023-12-20T07:25:33;12.70;99.90
59973;DHT22;55298;-36.624;-64.282;2023-12-20T07:28:01;12.70;99.90
59973;DHT22;55298;-36.624;-64.282;2023-12-20T07:30:28;12.70;99.90
59973;DHT22;55298;-36.624;-64.282;2023-12-20T07:32:56;12.60;99.90
59973;DHT22;55298;-36.624;-64.282;2023-12-20T07:35:24;12.60;99.90
59973;DHT22;55298;-36.624;-64.282;2023-12-20T07:37:52;12.60;99.90
59973;DHT22;55298;-36.624;-64.282;2023-12-20T07:40:19;12.50;99.90
59973;DHT22;55298;-36.624;-64.282;2023-12-20T07:42:47;12.40;99.90
59973;DHT22;55298;-36.624;-64.282;2023-12-20T07:45:15;12.50;99.90
59973;DHT22;55298;-36.624;-64.282;2023-12-20T07:47:42;12.50;99.90
59973;DHT22;55298;-36.624;-64.282;2023-12-20T07:50:10;12.50;99.90
59973;DHT22;55298;-36.624;-64.282;2023-12-20T07:52:37;12.60;99.90
59973;DHT22;55298;-36.624;-64.282;2023-12-20T07:55:05;12.60;99.90
59973;DHT22;55298;-36.624;-64.282;2023-12-20T07:57:33;12.50;99.90
59973;DHT22;55298;-36.624;-64.282;2023-12-20T08:00:01;12.50;99.90
59973;DHT22;55298;-36.624;-64.282;2023-12-20T08:02:30;12.50;99.90
59973;DHT22;55298;-36.624;-64.282;2023-12-20T08:04:57;12.50;99.90
59973;DHT22;55298;-36.624;-64.282;2023-12-20T08:07:25;12.40;99.90
59973;DHT22;55298;-36.624;-64.282;2023-12-20T08:09:53;12.40;99.90
59973;DHT22;55298;-36.624;-64.282;2023-12-20T08:12:23;12.40;99.90
59973;DHT22;55298;-36.624;-64.282;2023-12-20T08:14:50;12.50;99.90
59973;DHT22;55298;-36.624;-64.282;2023-12-20T08:17:18;12.50;99.90
59973;DHT22;55298;-36.624;-64.282;2023-12-20T08:19:46;12.60;99.90
59973;DHT22;55298;-36.624;-64.282;2023-12-20T08:22:14;12.50;99.90
59973;DHT22;55298;-36.624;-64.282;2023-12-20T08:24:42;12.50;99.90
59973;DHT22;55298;-36.624;-64.282;2023-12-20T08:27:10;12.60;99.90
59973;DHT22;55298;-36.624;-64.282;2023-12-20T08:29:38;12.60;99.90
59973;DHT22;55298;-36.624;-64.282;2023-12-20T08:32:06;12.60;99.90
59973;DHT22;55298;-36.624;-64.282;2023-12-20T08:34:33;12.70;99.90
59973;DHT22;55298;-36.624;-64.282;2023-12-20T08:37:01;12.70;99.90
59973;DHT22;55298;-36.624;-64.282;2023-12-20T08:39:28;12.70;99.90
59973;DHT22;55298;-36.624;-64.282;2023-12-20T08:41:56;12.70;99.90
59973;DHT22;55298;-36.624;-64.282;2023-12-20T08:49:36;12.90;99.90
59973;DHT22;55298;-36.624;-64.282;2023-12-20T08:52:04;12.80;99.90
59973;DHT22;55298;-36.624;-64.282;2023-12-20T08:54:31;12.90;99.90
59973;DHT22;55298;-36.624;-64.282;2023-12-20T08:56:59;12.80;99.90
59973;DHT22;55298;-36.624;-64.282;2023-12-20T08:59:27;12.90;99.90
59973;DHT22;55298;-36.624;-64.282;2023-12-20T09:01:54;12.80;99.90
59973;DHT22;55298;-36.624;-64.282;2023-12-20T09:04:22;13.20;99.90
59973;DHT22;55298;-36.624;-64.282;2023-12-20T09:06:50;12.80;99.90
59973;DHT22;55298;-36.624;-64.282;2023-12-20T09:09:18;12.90;99.90
59973;DHT22;55298;-36.624;-64.282;2023-12-20T09:11:46;12.90;99.90
59973;DHT22;55298;-36.624;-64.282;2023-12-20T09:14:16;13.00;99.90
59973;DHT22;55298;-36.624;-64.282;2023-12-20T09:16:44;13.00;99.90
59973;DHT22;55298;-36.624;-64.282;2023-12-20T09:19:12;12.90;99.90
59973;DHT22;55298;-36.624;-64.282;2023-12-20T09:21:39;12.90;99.90
59973;DHT22;55298;-36.624;-64.282;2023-12-20T09:26:34;12.90;99.90
59973;DHT22;55298;-36.624;-64.282;2023-12-20T09:29:02;13.00;99.90
59973;DHT22;55298;-36.624;-64.282;2023-12-20T09:31:29;13.00;99.90
59973;DHT22;55298;-36.624;-64.282;2023-12-20T09:42:26;13.00;99.90
59973;DHT22;55298;-36.624;-64.282;2023-12-20T09:44:58;13.00;99.90
59973;DHT22;55298;-36.624;-64.282;2023-12-20T09:47:30;13.00;99.90
59973;DHT22;55298;-36.624;-64.282;2023-12-20T09:49:57;13.00;99.90
59973;DHT22;55298;-36.624;-64.282;2023-12-20T09:52:25;13.10;99.90
59973;DHT22;55298;-36.624;-64.282;2023-12-20T09:54:54;13.60;99.90
59973;DHT22;55298;-36.624;-64.282;2023-12-20T09:57:23;13.10;99.90
59973;DHT22;55298;-36.624;-64.282;2023-12-20T09:59:51;13.00;99.90
59973;DHT22;55298;-36.624;-64.282;2023-12-20T10:02:21;13.00;99.90
59973;DHT22;55298;-36.624;-64.282;2023-12-20T10:04:54;13.10;99.90
59973;DHT22;55298;-36.624;-64.282;2023-12-20T10:07:22;15.50;99.90
59973;DHT22;55298;-36.624;-64.282;2023-12-20T10:09:51;13.10;99.90
59973;DHT22;55298;-36.624;-64.282;2023-12-20T10:12:23;13.10;99.90
59973;DHT22;55298;-36.624;-64.282;2023-12-20T10:14:51;13.10;99.90
59973;DHT22;55298;-36.624;-64.282;2023-12-20T10:17:31;13.10;99.90
59973;DHT22;55298;-36.624;-64.282;2023-12-20T10:20:11;13.10;99.90
59973;DHT22;55298;-36.624;-64.282;2023-12-20T10:22:40;13.10;99.90
59973;DHT22;55298;-36.624;-64.282;2023-12-20T10:25:11;13.10;99.90
59973;DHT22;55298;-36.624;-64.282;2023-12-20T10:27:39;13.10;99.90
59973;DHT22;55298;-36.624;-64.282;2023-12-20T10:30:07;13.10;99.90
59973;DHT22;55298;-36.624;-64.282;2023-12-20T10:32:35;13.00;99.90
59973;DHT22;55298;-36.624;-64.282;2023-12-20T10:35:04;13.20;99.90
59973;DHT22;55298;-36.624;-64.282;2023-12-20T10:37:38;13.10;99.90
59973;DHT22;55298;-36.624;-64.282;2023-12-20T10:40:06;13.10;99.90
59973;DHT22;55298;-36.624;-64.282;2023-12-20T10:42:36;13.10;99.90
59973;DHT22;55298;-36.624;-64.282;2023-12-20T10:47:38;13.10;99.90
59973;DHT22;55298;-36.624;-64.282;2023-12-20T10:50:07;13.10;99.90
59973;DHT22;55298;-36.624;-64.282;2023-12-20T10:52:37;13.10;99.90
59973;DHT22;55298;-36.624;-64.282;2023-12-20T10:55:08;13.10;99.90
59973;DHT22;55298;-36.624;-64.282;2023-12-20T10:57:36;13.20;99.90
59973;DHT22;55298;-36.624;-64.282;2023-12-20T11:00:07;13.10;99.90
59973;DHT22;55298;-36.624;-64.282;2023-12-20T11:02:44;13.20;99.90
59973;DHT22;55298;-36.624;-64.282;2023-12-20T11:08:17;12.20;99.90
59973;DHT22;55298;-36.624;-64.282;2023-12-20T11:14:14;13.10;99.90
59973;DHT22;55298;-36.624;-64.282;2023-12-20T11:16:44;13.10;99.90
59973;DHT22;55298;-36.624;-64.282;2023-12-20T11:19:13;13.10;99.90
59973;DHT22;55298;-36.624;-64.282;2023-12-20T11:21:45;13.10;99.90
59973;DHT22;55298;-36.624;-64.282;2023-12-20T11:24:21;15.60;99.90
59973;DHT22;55298;-36.624;-64.282;2023-12-20T11:27:10;13.00;99.90
59973;DHT22;55298;-36.624;-64.282;2023-12-20T11:29:59;13.10;99.90
59973;DHT22;55298;-36.624;-64.282;2023-12-20T11:32:29;13.60;99.90
59973;DHT22;55298;-36.624;-64.282;2023-12-20T11:35:24;13.10;99.90
59973;DHT22;55298;-36.624;-64.282;2023-12-20T11:39:08;13.20;99.90
59973;DHT22;55298;-36.624;-64.282;2023-12-20T11:42:07;13.20;99.90
59973;DHT22;55298;-36.624;-64.282;2023-12-20T11:47:24;13.30;99.90
59973;DHT22;55298;-36.624;-64.282;2023-12-20T11:49:52;13.30;99.90
59973;DHT22;55298;-36.624;-64.282;2023-12-20T11:52:23;13.40;99.90
59973;DHT22;55298;-36.624;-64.282;2023-12-20T11:54:50;13.40;99.90
59973;DHT22;55298;-36.624;-64.282;2023-12-20T11:57:19;13.40;99.90
59973;DHT22;55298;-36.624;-64.282;2023-12-20T11:59:47;13.40;99.90
59973;DHT22;55298;-36.624;-64.282;2023-12-20T12:02:15;13.40;99.90
59973;DHT22;55298;-36.624;-64.282;2023-12-20T12:04:57;14.00;99.90
59973;DHT22;55298;-36.624;-64.282;2023-12-20T12:07:34;13.50;99.90
59973;DHT22;55298;-36.624;-64.282;2023-12-20T12:10:07;12.80;99.90
59973;DHT22;55298;-36.624;-64.282;2023-12-20T12:12:38;13.50;99.90
59973;DHT22;55298;-36.624;-64.282;2023-12-20T12:15:12;13.40;99.90
59973;DHT22;55298;-36.624;-64.282;2023-12-20T12:18:02;13.60;99.90
59973;DHT22;55298;-36.624;-64.282;2023-12-20T12:20:30;13.70;99.90
59973;DHT22;55298;-36.624;-64.282;2023-12-20T12:23:03;13.80;99.90
59973;DHT22;55298;-36.624;-64.282;2023-12-20T12:25:32;13.80;99.90
59973;DHT22;55298;-36.624;-64.282;2023-12-20T12:28:01;13.80;99.90
59973;DHT22;55298;-36.624;-64.282;2023-12-20T12:30:29;13.80;99.90
59973;DHT22;55298;-36.624;-64.282;2023-12-20T12:32:57;13.80;99.90
59973;DHT22;55298;-36.624;-64.282;2023-12-20T12:35:24;13.80;99.90
59973;DHT22;55298;-36.624;-64.282;2023-12-20T12:37:52;13.80;99.90
59973;DHT22;55298;-36.624;-64.282;2023-12-20T12:40:20;13.70;99.90
59973;DHT22;55298;-36.624;-64.282;2023-12-20T12:42:54;13.70;99.90
59973;DHT22;55298;-36.624;-64.282;2023-12-20T12:48:59;14.00;99.90
59973;DHT22;55298;-36.624;-64.282;2023-12-20T12:52:01;14.00;99.90
59973;DHT22;55298;-36.624;-64.282;2023-12-20T13:00:47;14.10;99.90
59973;DHT22;55298;-36.624;-64.282;2023-12-20T13:14:02;14.80;99.90
59973;DHT22;55298;-36.624;-64.282;2023-12-20T13:16:53;14.80;99.90
59973;DHT22;55298;-36.624;-64.282;2023-12-20T13:19:30;14.90;99.90
59973;DHT22;55298;-36.624;-64.282;2023-12-20T13:22:07;15.10;99.90
59973;DHT22;55298;-36.624;-64.282;2023-12-20T13:24:36;14.80;99.90
59973;DHT22;55298;-36.624;-64.282;2023-12-20T13:33:02;16.10;99.90
59973;DHT22;55298;-36.624;-64.282;2023-12-20T13:35:35;16.10;99.90
59973;DHT22;55298;-36.624;-64.282;2023-12-20T13:45:00;16.40;99.90
59973;DHT22;55298;-36.624;-64.282;2023-12-20T13:47:34;16.60;99.90
59973;DHT22;55298;-36.624;-64.282;2023-12-20T13:50:05;16.80;99.90
59973;DHT22;55298;-36.624;-64.282;2023-12-20T13:52:33;19.10;99.90
59973;DHT22;55298;-36.624;-64.282;2023-12-20T13:55:02;19.20;99.90
59973;DHT22;55298;-36.624;-64.282;2023-12-20T13:57:34;18.80;99.90
59973;DHT22;55298;-36.624;-64.282;2023-12-20T14:00:07;19.10;99.90
59973;DHT22;55298;-36.624;-64.282;2023-12-20T14:02:44;19.30;99.90
59973;DHT22;55298;-36.624;-64.282;2023-12-20T14:05:14;19.20;99.90
59973;DHT22;55298;-36.624;-64.282;2023-12-20T14:07:50;19.00;99.90
59973;DHT22;55298;-36.624;-64.282;2023-12-20T14:10:19;18.90;99.90
59973;DHT22;55298;-36.624;-64.282;2023-12-20T14:12:47;19.00;99.90
59973;DHT22;55298;-36.624;-64.282;2023-12-20T14:15:18;18.50;99.90
59973;DHT22;55298;-36.624;-64.282;2023-12-20T14:17:48;18.30;99.90
59973;DHT22;55298;-36.624;-64.282;2023-12-20T14:20:20;17.50;99.90
59973;DHT22;55298;-36.624;-64.282;2023-12-20T14:25:15;17.10;99.90
59973;DHT22;55298;-36.624;-64.282;2023-12-20T14:27:51;17.10;99.90
59973;DHT22;55298;-36.624;-64.282;2023-12-20T14:30:33;17.20;99.90
59973;DHT22;55298;-36.624;-64.282;2023-12-20T14:33:03;16.20;99.90
59973;DHT22;55298;-36.624;-64.282;2023-12-20T14:35:38;17.40;99.90
59973;DHT22;55298;-36.624;-64.282;2023-12-20T14:38:11;17.40;99.90
59973;DHT22;55298;-36.624;-64.282;2023-12-20T14:40:48;17.40;99.90
59973;DHT22;55298;-36.624;-64.282;2023-12-20T14:43:23;17.60;99.90
59973;DHT22;55298;-36.624;-64.282;2023-12-20T14:46:07;18.20;99.90
59973;DHT22;55298;-36.624;-64.282;2023-12-20T14:48:35;18.50;99.90
59973;DHT22;55298;-36.624;-64.282;2023-12-20T14:51:03;18.50;99.90
59973;DHT22;55298;-36.624;-64.282;2023-12-20T14:53:42;18.70;99.90
59973;DHT22;55298;-36.624;-64.282;2023-12-20T14:56:16;18.60;99.90
59973;DHT22;55298;-36.624;-64.282;2023-12-20T14:58:50;18.70;99.90
59973;DHT22;55298;-36.624;-64.282;2023-12-20T15:01:19;18.40;99.90
59973;DHT22;55298;-36.624;-64.282;2023-12-20T15:03:49;18.30;99.90
59973;DHT22;55298;-36.624;-64.282;2023-12-20T15:06:19;18.30;99.90
59973;DHT22;55298;-36.624;-64.282;2023-12-20T15:08:53;18.10;99.90
59973;DHT22;55298;-36.624;-64.282;2023-12-20T15:11:21;18.00;99.90
59973;DHT22;55298;-36.624;-64.282;2023-12-20T15:13:55;18.00;99.90
59973;DHT22;55298;-36.624;-64.282;2023-12-20T15:16:28;18.00;99.90
59973;DHT22;55298;-36.624;-64.282;2023-12-20T15:19:13;18.10;99.90
59973;DHT22;55298;-36.624;-64.282;2023-12-20T15:21:55;18.20;99.90
59973;DHT22;55298;-36.624;-64.282;2023-12-20T15:24:25;18.40;99.90
59973;DHT22;55298;-36.624;-64.282;2023-12-20T15:27:03;18.50;99.90
59973;DHT22;55298;-36.624;-64.282;2023-12-20T15:29:34;18.70;99.90
59973;DHT22;55298;-36.624;-64.282;2023-12-20T15:32:04;19.20;99.90
59973;DHT22;55298;-36.624;-64.282;2023-12-20T15:34:40;20.30;99.90
59973;DHT22;55298;-36.624;-64.282;2023-12-20T15:37:21;18.80;99.90
59973;DHT22;55298;-36.624;-64.282;2023-12-20T15:39:51;18.70;99.90
59973;DHT22;55298;-36.624;-64.282;2023-12-20T15:42:20;18.60;99.90
59973;DHT22;55298;-36.624;-64.282;2023-12-20T15:44:52;18.70;99.90
59973;DHT22;55298;-36.624;-64.282;2023-12-20T15:47:23;18.70;99.90
59973;DHT22;55298;-36.624;-64.282;2023-12-20T15:49:52;19.00;99.90
59973;DHT22;55298;-36.624;-64.282;2023-12-20T15:52:20;19.10;99.90
59973;DHT22;55298;-36.624;-64.282;2023-12-20T15:54:47;19.40;99.90
59973;DHT22;55298;-36.624;-64.282;2023-12-20T15:57:16;19.30;99.90
59973;DHT22;55298;-36.624;-64.282;2023-12-20T15:59:44;19.10;99.90
59973;DHT22;55298;-36.624;-64.282;2023-12-20T16:02:11;19.00;99.90
59973;DHT22;55298;-36.624;-64.282;2023-12-20T16:04:46;18.80;99.90
59973;DHT22;55298;-36.624;-64.282;2023-12-20T16:07:25;18.60;99.90
59973;DHT22;55298;-36.624;-64.282;2023-12-20T16:10:02;18.50;99.90
59973;DHT22;55298;-36.624;-64.282;2023-12-20T16:12:56;18.30;99.90
59973;DHT22;55298;-36.624;-64.282;2023-12-20T16:15:30;18.30;99.90